sensor_id;sensor_type;location;lat;lon;timestamp;P1;durP1;ratioP1;P2;durP2;ratioP2
71046;SDS011;58703;48.978;8.982;2022-11-15T00:00:48;11.15;;;5.47;;
71046;SDS011;58703;48.978;8.982;2022-11-15T00:03:14;7.70;;;5.60;;
71046;SDS011;58703;48.978;8.982;2022-11-15T00:05:45;10.50;;;4.90;;
71046;SDS011;58703;48.978;8.982;2022-11-15T00:08:12;9.13;;;6.13;;
71046;SDS011;58703;48.978;8.982;2022-11-15T00:10:38;9.32;;;5.20;;
71046;SDS011;58703;48.978;8.982;2022-11-15T00:13:14;10.97;;;6.43;;
71046;SDS011;58703;48.978;8.982;2022-11-15T00:15:40;7.30;;;5.60;;
71046;SDS011;58703;48.978;8.982;2022-11-15T00:18:09;9.85;;;5.82;;
71046;SDS011;58703;48.978;8.982;2022-11-15T00:20:37;7.00;;;4.68;;
71046;SDS011;58703;48.978;8.982;2022-11-15T00:23:05;9.27;;;5.20;;
71046;SDS011;58703;48.978;8.982;2022-11-15T00:25:32;9.82;;;5.55;;
71046;SDS011;58703;48.978;8.982;2022-11-15T00:27:59;7.82;;;4.72;;
71046;SDS011;58703;48.978;8.982;2022-11-15T00:30:24;7.43;;;5.00;;
71046;SDS011;58703;48.978;8.982;2022-11-15T00:32:51;7.85;;;4.82;;
71046;SDS011;58703;48.978;8.982;2022-11-15T00:35:16;6.60;;;4.43;;
71046;SDS011;58703;48.978;8.982;2022-11-15T00:37:43;7.82;;;4.35;;
71046;SDS011;58703;48.978;8.982;2022-11-15T00:40:10;7.90;;;5.13;;
71046;SDS011;58703;48.978;8.982;2022-11-15T00:42:37;7.13;;;4.68;;
71046;SDS011;58703;48.978;8.982;2022-11-15T00:45:03;7.13;;;5.00;;
71046;SDS011;58703;48.978;8.982;2022-11-15T00:47:29;7.93;;;4.57;;
71046;SDS011;58703;48.978;8.982;2022-11-15T00:49:54;7.40;;;5.27;;
71046;SDS011;58703;48.978;8.982;2022-11-15T00:52:20;7.03;;;4.72;;
71046;SDS011;58703;48.978;8.982;2022-11-15T00:54:46;8.67;;;5.27;;
71046;SDS011;58703;48.978;8.982;2022-11-15T00:57:12;7.73;;;5.43;;
71046;SDS011;58703;48.978;8.982;2022-11-15T00:59:38;7.07;;;5.07;;
71046;SDS011;58703;48.978;8.982;2022-11-15T01:02:03;7.40;;;5.10;;
71046;SDS011;58703;48.978;8.982;2022-11-15T01:04:29;6.23;;;4.73;;
71046;SDS011;58703;48.978;8.982;2022-11-15T01:06:54;6.67;;;4.67;;
71046;SDS011;58703;48.978;8.982;2022-11-15T01:09:20;11.30;;;5.53;;
71046;SDS011;58703;48.978;8.982;2022-11-15T01:11:46;7.00;;;4.80;;
71046;SDS011;58703;48.978;8.982;2022-11-15T01:14:12;7.55;;;5.25;;
71046;SDS011;58703;48.978;8.982;2022-11-15T01:16:39;5.68;;;4.22;;
71046;SDS011;58703;48.978;8.982;2022-11-15T01:19:05;8.27;;;5.70;;
71046;SDS011;58703;48.978;8.982;2022-11-15T01:21:30;7.45;;;4.80;;
71046;SDS011;58703;48.978;8.982;2022-11-15T01:23:56;9.37;;;4.97;;
71046;SDS011;58703;48.978;8.982;2022-11-15T01:26:22;5.65;;;4.70;;
71046;SDS011;58703;48.978;8.982;2022-11-15T01:28:50;7.07;;;5.40;;
71046;SDS011;58703;48.978;8.982;2022-11-15T01:31:17;6.80;;;4.30;;
71046;SDS011;58703;48.978;8.982;2022-11-15T01:33:45;8.18;;;3.78;;
71046;SDS011;58703;48.978;8.982;2022-11-15T01:36:15;5.15;;;3.53;;
71046;SDS011;58703;48.978;8.982;2022-11-15T01:38:44;5.72;;;4.05;;
71046;SDS011;58703;48.978;8.982;2022-11-15T01:41:16;7.00;;;5.00;;
71046;SDS011;58703;48.978;8.982;2022-11-15T01:43:46;7.35;;;4.70;;
71046;SDS011;58703;48.978;8.982;2022-11-15T01:49:11;7.70;;;4.50;;
71046;SDS011;58703;48.978;8.982;2022-11-15T01:51:39;6.20;;;4.40;;
71046;SDS011;58703;48.978;8.982;2022-11-15T01:54:06;6.57;;;4.53;;
71046;SDS011;58703;48.978;8.982;2022-11-15T01:56:38;7.97;;;4.97;;
71046;SDS011;58703;48.978;8.982;2022-11-15T01:59:24;13.75;;;6.72;;
71046;SDS011;58703;48.978;8.982;2022-11-15T02:01:52;9.63;;;6.17;;
71046;SDS011;58703;48.978;8.982;2022-11-15T02:04:20;11.30;;;6.68;;
71046;SDS011;58703;48.978;8.982;2022-11-15T02:06:50;11.90;;;6.15;;
71046;SDS011;58703;48.978;8.982;2022-11-15T02:09:16;8.35;;;5.55;;
71046;SDS011;58703;48.978;8.982;2022-11-15T02:11:42;8.02;;;5.05;;
71046;SDS011;58703;48.978;8.982;2022-11-15T02:14:09;6.70;;;5.03;;
71046;SDS011;58703;48.978;8.982;2022-11-15T02:16:54;7.40;;;5.05;;
71046;SDS011;58703;48.978;8.982;2022-11-15T02:28:24;8.17;;;5.73;;
71046;SDS011;58703;48.978;8.982;2022-11-15T02:39:46;8.90;;;5.07;;
71046;SDS011;58703;48.978;8.982;2022-11-15T02:42:28;8.80;;;5.23;;
71046;SDS011;58703;48.978;8.982;2022-11-15T02:45:30;8.45;;;4.93;;
71046;SDS011;58703;48.978;8.982;2022-11-15T02:48:00;7.47;;;5.35;;
71046;SDS011;58703;48.978;8.982;2022-11-15T02:50:30;8.77;;;5.00;;
71046;SDS011;58703;48.978;8.982;2022-11-15T02:52:59;7.15;;;4.82;;
71046;SDS011;58703;48.978;8.982;2022-11-15T02:55:30;6.33;;;5.10;;
71046;SDS011;58703;48.978;8.982;2022-11-15T03:00:31;8.07;;;5.00;;
71046;SDS011;58703;48.978;8.982;2022-11-15T03:09:03;5.77;;;4.70;;
71046;SDS011;58703;48.978;8.982;2022-11-15T03:11:35;7.68;;;4.63;;
71046;SDS011;58703;48.978;8.982;2022-11-15T03:19:55;9.10;;;5.53;;
71046;SDS011;58703;48.978;8.982;2022-11-15T03:22:24;8.13;;;5.00;;
71046;SDS011;58703;48.978;8.982;2022-11-15T03:24:57;12.48;;;5.03;;
71046;SDS011;58703;48.978;8.982;2022-11-15T03:27:27;8.30;;;5.10;;
71046;SDS011;58703;48.978;8.982;2022-11-15T03:29:59;6.13;;;4.93;;
71046;SDS011;58703;48.978;8.982;2022-11-15T03:32:30;10.35;;;5.00;;
71046;SDS011;58703;48.978;8.982;2022-11-15T03:37:35;5.85;;;3.97;;
71046;SDS011;58703;48.978;8.982;2022-11-15T03:40:07;8.27;;;5.20;;
71046;SDS011;58703;48.978;8.982;2022-11-15T03:45:10;8.90;;;4.75;;
71046;SDS011;58703;48.978;8.982;2022-11-15T03:47:45;6.87;;;5.43;;
71046;SDS011;58703;48.978;8.982;2022-11-15T03:50:18;13.70;;;5.80;;
71046;SDS011;58703;48.978;8.982;2022-11-15T03:52:47;5.95;;;4.85;;
71046;SDS011;58703;48.978;8.982;2022-11-15T03:55:19;6.72;;;4.90;;
71046;SDS011;58703;48.978;8.982;2022-11-15T03:57:47;9.00;;;4.90;;
71046;SDS011;58703;48.978;8.982;2022-11-15T04:00:15;7.13;;;4.53;;
71046;SDS011;58703;48.978;8.982;2022-11-15T04:02:41;6.07;;;4.53;;
71046;SDS011;58703;48.978;8.982;2022-11-15T04:05:07;7.68;;;4.57;;
71046;SDS011;58703;48.978;8.982;2022-11-15T04:07:32;6.33;;;5.03;;
71046;SDS011;58703;48.978;8.982;2022-11-15T04:09:59;6.07;;;4.10;;
71046;SDS011;58703;48.978;8.982;2022-11-15T04:12:28;6.80;;;4.13;;
71046;SDS011;58703;48.978;8.982;2022-11-15T04:14:57;8.98;;;5.38;;
71046;SDS011;58703;48.978;8.982;2022-11-15T04:17:40;8.18;;;6.22;;
71046;SDS011;58703;48.978;8.982;2022-11-15T04:20:16;5.85;;;4.35;;
71046;SDS011;58703;48.978;8.982;2022-11-15T04:23:08;9.45;;;4.55;;
71046;SDS011;58703;48.978;8.982;2022-11-15T04:26:00;6.90;;;4.57;;
71046;SDS011;58703;48.978;8.982;2022-11-15T04:28:28;6.68;;;4.78;;
71046;SDS011;58703;48.978;8.982;2022-11-15T04:30:53;6.78;;;4.10;;
71046;SDS011;58703;48.978;8.982;2022-11-15T04:33:19;5.57;;;3.77;;
71046;SDS011;58703;48.978;8.982;2022-11-15T04:35:44;7.40;;;5.75;;
71046;SDS011;58703;48.978;8.982;2022-11-15T04:38:30;6.60;;;4.33;;
71046;SDS011;58703;48.978;8.982;2022-11-15T04:40:57;6.82;;;3.88;;
71046;SDS011;58703;48.978;8.982;2022-11-15T04:43:22;7.50;;;3.65;;
71046;SDS011;58703;48.978;8.982;2022-11-15T04:45:48;11.23;;;7.53;;
71046;SDS011;58703;48.978;8.982;2022-11-15T04:48:13;7.40;;;5.47;;
71046;SDS011;58703;48.978;8.982;2022-11-15T04:50:39;6.82;;;5.05;;
71046;SDS011;58703;48.978;8.982;2022-11-15T04:53:04;6.10;;;4.87;;
71046;SDS011;58703;48.978;8.982;2022-11-15T04:55:32;8.25;;;7.18;;
71046;SDS011;58703;48.978;8.982;2022-11-15T04:57:59;8.23;;;6.38;;
71046;SDS011;58703;48.978;8.982;2022-11-15T05:00:27;5.40;;;4.60;;
71046;SDS011;58703;48.978;8.982;2022-11-15T05:02:56;11.68;;;5.80;;
71046;SDS011;58703;48.978;8.982;2022-11-15T05:05:40;7.20;;;5.22;;
71046;SDS011;58703;48.978;8.982;2022-11-15T05:08:06;17.00;;;8.35;;
71046;SDS011;58703;48.978;8.982;2022-11-15T05:10:33;18.95;;;10.25;;
71046;SDS011;58703;48.978;8.982;2022-11-15T05:13:00;15.50;;;9.13;;
71046;SDS011;58703;48.978;8.982;2022-11-15T05:15:26;15.27;;;9.30;;
71046;SDS011;58703;48.978;8.982;2022-11-15T05:17:56;15.33;;;8.50;;
71046;SDS011;58703;48.978;8.982;2022-11-15T05:20:22;9.05;;;5.65;;
71046;SDS011;58703;48.978;8.982;2022-11-15T05:22:49;10.53;;;6.50;;
71046;SDS011;58703;48.978;8.982;2022-11-15T05:25:15;9.23;;;6.17;;
71046;SDS011;58703;48.978;8.982;2022-11-15T05:27:42;8.18;;;4.85;;
71046;SDS011;58703;48.978;8.982;2022-11-15T05:30:08;7.67;;;3.90;;
71046;SDS011;58703;48.978;8.982;2022-11-15T05:32:34;7.75;;;4.18;;
71046;SDS011;58703;48.978;8.982;2022-11-15T05:35:01;5.65;;;4.13;;
71046;SDS011;58703;48.978;8.982;2022-11-15T05:37:28;16.67;;;9.90;;
71046;SDS011;58703;48.978;8.982;2022-11-15T05:39:56;21.88;;;12.15;;
71046;SDS011;58703;48.978;8.982;2022-11-15T05:42:22;38.47;;;17.38;;
71046;SDS011;58703;48.978;8.982;2022-11-15T05:44:49;44.50;;;17.55;;
71046;SDS011;58703;48.978;8.982;2022-11-15T05:47:20;22.23;;;11.32;;
71046;SDS011;58703;48.978;8.982;2022-11-15T05:49:49;19.63;;;10.00;;
71046;SDS011;58703;48.978;8.982;2022-11-15T05:52:17;18.95;;;9.65;;
71046;SDS011;58703;48.978;8.982;2022-11-15T05:54:46;17.33;;;8.57;;
71046;SDS011;58703;48.978;8.982;2022-11-15T05:57:14;15.15;;;6.90;;
71046;SDS011;58703;48.978;8.982;2022-11-15T05:59:40;13.80;;;7.60;;
71046;SDS011;58703;48.978;8.982;2022-11-15T06:02:10;85.40;;;29.53;;
71046;SDS011;58703;48.978;8.982;2022-11-15T06:04:36;26.00;;;11.07;;
71046;SDS011;58703;48.978;8.982;2022-11-15T06:07:02;22.20;;;10.98;;
71046;SDS011;58703;48.978;8.982;2022-11-15T06:09:28;12.07;;;7.10;;
71046;SDS011;58703;48.978;8.982;2022-11-15T06:11:55;6.97;;;4.93;;
71046;SDS011;58703;48.978;8.982;2022-11-15T06:14:22;10.55;;;5.60;;
71046;SDS011;58703;48.978;8.982;2022-11-15T06:16:48;7.20;;;4.53;;
71046;SDS011;58703;48.978;8.982;2022-11-15T06:19:13;9.55;;;5.97;;
71046;SDS011;58703;48.978;8.982;2022-11-15T06:21:40;7.67;;;5.50;;
71046;SDS011;58703;48.978;8.982;2022-11-15T06:24:07;9.02;;;6.65;;
71046;SDS011;58703;48.978;8.982;2022-11-15T06:26:33;8.60;;;6.00;;
71046;SDS011;58703;48.978;8.982;2022-11-15T06:28:58;6.97;;;4.50;;
71046;SDS011;58703;48.978;8.982;2022-11-15T06:31:25;9.68;;;4.53;;
71046;SDS011;58703;48.978;8.982;2022-11-15T06:33:52;6.68;;;4.35;;
71046;SDS011;58703;48.978;8.982;2022-11-15T06:36:19;8.88;;;4.50;;
71046;SDS011;58703;48.978;8.982;2022-11-15T06:38:46;8.17;;;4.17;;
71046;SDS011;58703;48.978;8.982;2022-11-15T06:41:13;6.20;;;4.10;;
71046;SDS011;58703;48.978;8.982;2022-11-15T06:43:40;7.47;;;3.92;;
71046;SDS011;58703;48.978;8.982;2022-11-15T06:46:07;8.50;;;3.95;;
71046;SDS011;58703;48.978;8.982;2022-11-15T06:48:33;6.43;;;4.35;;
71046;SDS011;58703;48.978;8.982;2022-11-15T06:51:04;11.17;;;5.60;;
71046;SDS011;58703;48.978;8.982;2022-11-15T06:53:51;9.10;;;5.93;;
71046;SDS011;58703;48.978;8.982;2022-11-15T06:56:18;10.07;;;6.38;;
71046;SDS011;58703;48.978;8.982;2022-11-15T06:58:45;14.80;;;7.88;;
71046;SDS011;58703;48.978;8.982;2022-11-15T07:01:11;13.80;;;8.10;;
71046;SDS011;58703;48.978;8.982;2022-11-15T07:03:40;14.80;;;8.67;;
71046;SDS011;58703;48.978;8.982;2022-11-15T07:06:07;15.00;;;9.18;;
71046;SDS011;58703;48.978;8.982;2022-11-15T07:08:35;15.52;;;8.45;;
71046;SDS011;58703;48.978;8.982;2022-11-15T07:11:03;16.90;;;8.98;;
71046;SDS011;58703;48.978;8.982;2022-11-15T07:13:31;8.07;;;6.07;;
71046;SDS011;58703;48.978;8.982;2022-11-15T07:16:02;12.23;;;6.23;;
71046;SDS011;58703;48.978;8.982;2022-11-15T07:18:38;8.57;;;5.28;;
71046;SDS011;58703;48.978;8.982;2022-11-15T07:21:05;9.43;;;5.90;;
71046;SDS011;58703;48.978;8.982;2022-11-15T07:23:32;7.43;;;4.72;;
71046;SDS011;58703;48.978;8.982;2022-11-15T07:25:58;7.47;;;4.87;;
71046;SDS011;58703;48.978;8.982;2022-11-15T07:28:24;18.70;;;8.50;;
71046;SDS011;58703;48.978;8.982;2022-11-15T07:30:51;17.15;;;9.40;;
71046;SDS011;58703;48.978;8.982;2022-11-15T07:33:16;17.30;;;9.57;;
71046;SDS011;58703;48.978;8.982;2022-11-15T07:35:43;18.30;;;10.50;;
71046;SDS011;58703;48.978;8.982;2022-11-15T07:38:12;30.20;;;16.42;;
71046;SDS011;58703;48.978;8.982;2022-11-15T07:40:40;16.55;;;9.43;;
71046;SDS011;58703;48.978;8.982;2022-11-15T07:43:06;18.73;;;9.43;;
71046;SDS011;58703;48.978;8.982;2022-11-15T07:45:34;12.38;;;7.32;;
71046;SDS011;58703;48.978;8.982;2022-11-15T07:48:05;11.30;;;6.20;;
71046;SDS011;58703;48.978;8.982;2022-11-15T07:50:32;8.83;;;6.23;;
71046;SDS011;58703;48.978;8.982;2022-11-15T07:52:58;11.50;;;6.13;;
71046;SDS011;58703;48.978;8.982;2022-11-15T07:55:25;7.63;;;4.80;;
71046;SDS011;58703;48.978;8.982;2022-11-15T07:57:52;6.00;;;4.38;;
71046;SDS011;58703;48.978;8.982;2022-11-15T08:00:19;6.50;;;4.47;;
71046;SDS011;58703;48.978;8.982;2022-11-15T08:02:45;11.52;;;6.80;;
71046;SDS011;58703;48.978;8.982;2022-11-15T08:05:11;15.73;;;7.20;;
71046;SDS011;58703;48.978;8.982;2022-11-15T08:07:37;16.25;;;7.32;;
71046;SDS011;58703;48.978;8.982;2022-11-15T08:10:04;17.80;;;7.32;;
71046;SDS011;58703;48.978;8.982;2022-11-15T08:12:32;10.43;;;5.40;;
71046;SDS011;58703;48.978;8.982;2022-11-15T08:14:57;7.60;;;4.45;;
71046;SDS011;58703;48.978;8.982;2022-11-15T08:17:24;9.70;;;4.60;;
71046;SDS011;58703;48.978;8.982;2022-11-15T08:19:51;7.25;;;4.00;;
71046;SDS011;58703;48.978;8.982;2022-11-15T08:22:16;6.60;;;4.18;;
71046;SDS011;58703;48.978;8.982;2022-11-15T08:24:44;5.33;;;3.17;;
71046;SDS011;58703;48.978;8.982;2022-11-15T08:27:09;6.65;;;4.20;;
71046;SDS011;58703;48.978;8.982;2022-11-15T08:29:42;5.35;;;3.50;;
71046;SDS011;58703;48.978;8.982;2022-11-15T08:32:09;8.05;;;3.75;;
71046;SDS011;58703;48.978;8.982;2022-11-15T08:34:36;6.90;;;4.30;;
71046;SDS011;58703;48.978;8.982;2022-11-15T08:37:02;7.15;;;5.20;;
71046;SDS011;58703;48.978;8.982;2022-11-15T08:39:28;9.18;;;6.13;;
71046;SDS011;58703;48.978;8.982;2022-11-15T08:41:54;5.77;;;4.80;;
71046;SDS011;58703;48.978;8.982;2022-11-15T08:44:20;5.93;;;4.18;;
71046;SDS011;58703;48.978;8.982;2022-11-15T08:46:46;7.20;;;5.73;;
71046;SDS011;58703;48.978;8.982;2022-11-15T08:49:12;10.80;;;6.55;;
71046;SDS011;58703;48.978;8.982;2022-11-15T08:51:38;7.37;;;5.50;;
71046;SDS011;58703;48.978;8.982;2022-11-15T08:54:04;9.37;;;5.50;;
71046;SDS011;58703;48.978;8.982;2022-11-15T08:56:30;10.23;;;5.97;;
71046;SDS011;58703;48.978;8.982;2022-11-15T08:58:55;14.80;;;9.18;;
71046;SDS011;58703;48.978;8.982;2022-11-15T09:01:21;8.40;;;6.23;;
71046;SDS011;58703;48.978;8.982;2022-11-15T09:03:47;8.02;;;3.42;;
71046;SDS011;58703;48.978;8.982;2022-11-15T09:06:14;5.70;;;3.27;;
71046;SDS011;58703;48.978;8.982;2022-11-15T09:08:40;7.05;;;3.63;;
71046;SDS011;58703;48.978;8.982;2022-11-15T09:11:08;6.68;;;3.67;;
71046;SDS011;58703;48.978;8.982;2022-11-15T09:13:36;7.30;;;4.53;;
71046;SDS011;58703;48.978;8.982;2022-11-15T09:16:03;11.15;;;4.07;;
71046;SDS011;58703;48.978;8.982;2022-11-15T09:18:30;7.22;;;3.95;;
71046;SDS011;58703;48.978;8.982;2022-11-15T09:20:57;6.18;;;3.90;;
71046;SDS011;58703;48.978;8.982;2022-11-15T09:23:25;8.47;;;3.30;;
71046;SDS011;58703;48.978;8.982;2022-11-15T09:25:52;7.90;;;4.25;;
71046;SDS011;58703;48.978;8.982;2022-11-15T09:28:23;6.63;;;4.90;;
71046;SDS011;58703;48.978;8.982;2022-11-15T09:30:49;5.87;;;3.63;;
71046;SDS011;58703;48.978;8.982;2022-11-15T09:33:16;5.53;;;3.85;;
71046;SDS011;58703;48.978;8.982;2022-11-15T09:35:43;5.80;;;4.28;;
71046;SDS011;58703;48.978;8.982;2022-11-15T09:38:10;7.55;;;4.50;;
71046;SDS011;58703;48.978;8.982;2022-11-15T09:40:37;7.15;;;4.10;;
71046;SDS011;58703;48.978;8.982;2022-11-15T09:51:34;15.57;;;8.15;;
71046;SDS011;58703;48.978;8.982;2022-11-15T09:54:08;14.30;;;8.43;;
71046;SDS011;58703;48.978;8.982;2022-11-15T09:56:41;19.50;;;10.73;;
71046;SDS011;58703;48.978;8.982;2022-11-15T10:02:14;9.10;;;4.97;;
71046;SDS011;58703;48.978;8.982;2022-11-15T10:04:45;4.30;;;2.97;;
71046;SDS011;58703;48.978;8.982;2022-11-15T10:07:26;8.32;;;3.28;;
71046;SDS011;58703;48.978;8.982;2022-11-15T10:10:08;5.90;;;3.40;;
71046;SDS011;58703;48.978;8.982;2022-11-15T10:12:44;5.95;;;3.58;;
71046;SDS011;58703;48.978;8.982;2022-11-15T10:15:15;7.00;;;3.42;;
71046;SDS011;58703;48.978;8.982;2022-11-15T10:20:44;8.63;;;4.57;;
71046;SDS011;58703;48.978;8.982;2022-11-15T10:23:14;4.37;;;3.77;;
71046;SDS011;58703;48.978;8.982;2022-11-15T10:25:43;4.95;;;3.28;;
71046;SDS011;58703;48.978;8.982;2022-11-15T10:30:55;10.55;;;6.35;;
71046;SDS011;58703;48.978;8.982;2022-11-15T10:33:25;10.05;;;6.40;;
71046;SDS011;58703;48.978;8.982;2022-11-15T10:44:07;5.72;;;3.22;;
71046;SDS011;58703;48.978;8.982;2022-11-15T10:46:34;7.55;;;4.15;;
71046;SDS011;58703;48.978;8.982;2022-11-15T10:51:57;7.28;;;4.45;;
71046;SDS011;58703;48.978;8.982;2022-11-15T10:54:30;6.68;;;4.18;;
71046;SDS011;58703;48.978;8.982;2022-11-15T10:57:04;8.45;;;4.68;;
71046;SDS011;58703;48.978;8.982;2022-11-15T10:59:36;8.13;;;4.60;;
71046;SDS011;58703;48.978;8.982;2022-11-15T11:04:55;6.68;;;3.85;;
71046;SDS011;58703;48.978;8.982;2022-11-15T11:07:22;5.65;;;4.03;;
71046;SDS011;58703;48.978;8.982;2022-11-15T11:09:56;5.75;;;3.88;;
71046;SDS011;58703;48.978;8.982;2022-11-15T11:12:27;7.87;;;3.80;;
71046;SDS011;58703;48.978;8.982;2022-11-15T11:14:55;6.63;;;4.20;;
71046;SDS011;58703;48.978;8.982;2022-11-15T11:20:20;5.27;;;3.77;;
71046;SDS011;58703;48.978;8.982;2022-11-15T11:30:50;7.85;;;4.95;;
71046;SDS011;58703;48.978;8.982;2022-11-15T11:33:30;18.05;;;7.20;;
71046;SDS011;58703;48.978;8.982;2022-11-15T11:38:57;10.27;;;5.70;;
71046;SDS011;58703;48.978;8.982;2022-11-15T11:41:47;10.30;;;5.30;;
71046;SDS011;58703;48.978;8.982;2022-11-15T11:44:43;7.60;;;4.03;;
71046;SDS011;58703;48.978;8.982;2022-11-15T11:47:23;6.95;;;3.38;;
71046;SDS011;58703;48.978;8.982;2022-11-15T11:49:53;6.05;;;4.10;;
71046;SDS011;58703;48.978;8.982;2022-11-15T11:52:43;9.57;;;3.23;;
71046;SDS011;58703;48.978;8.982;2022-11-15T11:58:12;5.63;;;3.40;;
71046;SDS011;58703;48.978;8.982;2022-11-15T12:00:52;5.00;;;3.55;;
71046;SDS011;58703;48.978;8.982;2022-11-15T12:12:13;5.50;;;4.43;;
71046;SDS011;58703;48.978;8.982;2022-11-15T12:14:48;6.80;;;3.70;;
71046;SDS011;58703;48.978;8.982;2022-11-15T12:17:21;11.23;;;4.20;;
71046;SDS011;58703;48.978;8.982;2022-11-15T12:19:48;13.40;;;3.93;;
71046;SDS011;58703;48.978;8.982;2022-11-15T12:25:03;5.47;;;3.78;;
71046;SDS011;58703;48.978;8.982;2022-11-15T12:30:04;7.23;;;4.00;;
71046;SDS011;58703;48.978;8.982;2022-11-15T12:32:39;8.50;;;3.63;;
71046;SDS011;58703;48.978;8.982;2022-11-15T12:35:57;7.05;;;4.05;;
71046;SDS011;58703;48.978;8.982;2022-11-15T12:38:12;13.50;;;5.60;;
71046;SDS011;58703;48.978;8.982;2022-11-15T12:40:39;7.78;;;4.32;;
71046;SDS011;58703;48.978;8.982;2022-11-15T12:43:41;14.13;;;6.17;;
71046;SDS011;58703;48.978;8.982;2022-11-15T12:46:10;12.10;;;5.85;;
71046;SDS011;58703;48.978;8.982;2022-11-15T12:48:48;11.40;;;5.80;;
71046;SDS011;58703;48.978;8.982;2022-11-15T12:51:21;12.18;;;5.93;;
71046;SDS011;58703;48.978;8.982;2022-11-15T13:22:44;9.60;;;5.37;;
71046;SDS011;58703;48.978;8.982;2022-11-15T13:27:51;10.63;;;5.47;;
71046;SDS011;58703;48.978;8.982;2022-11-15T13:30:24;11.02;;;5.25;;
71046;SDS011;58703;48.978;8.982;2022-11-15T13:32:51;9.57;;;5.30;;
71046;SDS011;58703;48.978;8.982;2022-11-15T13:35:28;12.68;;;6.25;;
71046;SDS011;58703;48.978;8.982;2022-11-15T13:37:57;10.25;;;5.70;;
71046;SDS011;58703;48.978;8.982;2022-11-15T13:40:36;10.07;;;4.77;;
71046;SDS011;58703;48.978;8.982;2022-11-15T13:46:03;12.93;;;5.72;;
71046;SDS011;58703;48.978;8.982;2022-11-15T13:48:29;6.07;;;3.50;;
71046;SDS011;58703;48.978;8.982;2022-11-15T13:50:55;10.47;;;4.20;;
71046;SDS011;58703;48.978;8.982;2022-11-15T13:53:23;8.23;;;4.75;;
71046;SDS011;58703;48.978;8.982;2022-11-15T13:55:50;7.47;;;5.15;;
71046;SDS011;58703;48.978;8.982;2022-11-15T13:58:17;9.40;;;5.05;;
71046;SDS011;58703;48.978;8.982;2022-11-15T14:00:46;8.37;;;4.10;;
71046;SDS011;58703;48.978;8.982;2022-11-15T14:03:17;9.07;;;4.30;;
71046;SDS011;58703;48.978;8.982;2022-11-15T14:05:43;7.13;;;3.63;;
71046;SDS011;58703;48.978;8.982;2022-11-15T14:08:22;8.77;;;4.10;;
71046;SDS011;58703;48.978;8.982;2022-11-15T14:11:04;10.65;;;4.13;;
71046;SDS011;58703;48.978;8.982;2022-11-15T14:16:36;15.43;;;5.18;;
71046;SDS011;58703;48.978;8.982;2022-11-15T14:19:08;12.15;;;5.97;;
71046;SDS011;58703;48.978;8.982;2022-11-15T14:21:36;12.10;;;5.77;;
71046;SDS011;58703;48.978;8.982;2022-11-15T14:24:15;11.30;;;5.47;;
71046;SDS011;58703;48.978;8.982;2022-11-15T14:26:46;13.13;;;5.43;;
71046;SDS011;58703;48.978;8.982;2022-11-15T14:29:25;15.65;;;6.72;;
71046;SDS011;58703;48.978;8.982;2022-11-15T14:31:53;12.40;;;5.55;;
71046;SDS011;58703;48.978;8.982;2022-11-15T14:34:31;10.43;;;7.80;;
71046;SDS011;58703;48.978;8.982;2022-11-15T14:36:58;20.95;;;15.85;;
71046;SDS011;58703;48.978;8.982;2022-11-15T14:39:25;13.85;;;9.50;;
71046;SDS011;58703;48.978;8.982;2022-11-15T14:41:52;10.15;;;5.72;;
71046;SDS011;58703;48.978;8.982;2022-11-15T14:44:18;7.47;;;5.63;;
71046;SDS011;58703;48.978;8.982;2022-11-15T14:46:45;26.07;;;11.83;;
71046;SDS011;58703;48.978;8.982;2022-11-15T14:49:11;24.60;;;12.73;;
71046;SDS011;58703;48.978;8.982;2022-11-15T14:51:38;18.75;;;9.98;;
71046;SDS011;58703;48.978;8.982;2022-11-15T14:54:04;14.93;;;7.37;;
71046;SDS011;58703;48.978;8.982;2022-11-15T14:56:30;17.75;;;6.70;;
71046;SDS011;58703;48.978;8.982;2022-11-15T14:58:56;9.57;;;5.03;;
71046;SDS011;58703;48.978;8.982;2022-11-15T15:01:24;6.90;;;4.03;;
71046;SDS011;58703;48.978;8.982;2022-11-15T15:03:52;8.93;;;5.05;;
71046;SDS011;58703;48.978;8.982;2022-11-15T15:06:21;7.53;;;4.23;;
71046;SDS011;58703;48.978;8.982;2022-11-15T15:08:46;8.73;;;4.60;;
71046;SDS011;58703;48.978;8.982;2022-11-15T15:11:14;10.30;;;6.20;;
71046;SDS011;58703;48.978;8.982;2022-11-15T15:13:47;9.82;;;5.57;;
71046;SDS011;58703;48.978;8.982;2022-11-15T15:16:12;7.07;;;4.00;;
71046;SDS011;58703;48.978;8.982;2022-11-15T15:18:38;8.85;;;4.30;;
71046;SDS011;58703;48.978;8.982;2022-11-15T15:21:10;11.47;;;4.87;;
71046;SDS011;58703;48.978;8.982;2022-11-15T15:23:44;9.23;;;4.60;;
71046;SDS011;58703;48.978;8.982;2022-11-15T15:26:09;10.17;;;4.37;;
71046;SDS011;58703;48.978;8.982;2022-11-15T15:28:35;8.37;;;4.50;;
71046;SDS011;58703;48.978;8.982;2022-11-15T15:31:02;4.88;;;3.40;;
71046;SDS011;58703;48.978;8.982;2022-11-15T15:33:28;8.32;;;4.22;;
71046;SDS011;58703;48.978;8.982;2022-11-15T15:35:54;10.23;;;4.70;;
71046;SDS011;58703;48.978;8.982;2022-11-15T15:38:19;11.77;;;3.97;;
71046;SDS011;58703;48.978;8.982;2022-11-15T15:40:45;8.17;;;5.03;;
71046;SDS011;58703;48.978;8.982;2022-11-15T15:43:10;13.80;;;5.10;;
71046;SDS011;58703;48.978;8.982;2022-11-15T15:45:38;10.02;;;4.95;;
71046;SDS011;58703;48.978;8.982;2022-11-15T15:48:07;10.23;;;5.95;;
71046;SDS011;58703;48.978;8.982;2022-11-15T15:50:36;10.90;;;6.20;;
71046;SDS011;58703;48.978;8.982;2022-11-15T15:53:02;11.83;;;7.93;;
71046;SDS011;58703;48.978;8.982;2022-11-15T15:55:28;11.40;;;6.05;;
71046;SDS011;58703;48.978;8.982;2022-11-15T15:57:54;7.50;;;4.60;;
71046;SDS011;58703;48.978;8.982;2022-11-15T16:00:21;8.02;;;5.30;;
71046;SDS011;58703;48.978;8.982;2022-11-15T16:02:52;9.00;;;5.25;;
71046;SDS011;58703;48.978;8.982;2022-11-15T16:05:19;7.43;;;4.30;;
71046;SDS011;58703;48.978;8.982;2022-11-15T16:07:44;7.60;;;5.23;;
71046;SDS011;58703;48.978;8.982;2022-11-15T16:10:16;8.73;;;5.63;;
71046;SDS011;58703;48.978;8.982;2022-11-15T16:12:52;10.57;;;6.25;;
71046;SDS011;58703;48.978;8.982;2022-11-15T16:15:19;11.68;;;5.10;;
71046;SDS011;58703;48.978;8.982;2022-11-15T16:17:50;8.93;;;5.47;;
71046;SDS011;58703;48.978;8.982;2022-11-15T16:20:37;14.27;;;6.30;;
71046;SDS011;58703;48.978;8.982;2022-11-15T16:23:13;8.25;;;4.90;;
71046;SDS011;58703;48.978;8.982;2022-11-15T16:28:16;8.97;;;4.40;;
71046;SDS011;58703;48.978;8.982;2022-11-15T16:30:44;7.97;;;3.80;;
71046;SDS011;58703;48.978;8.982;2022-11-15T16:33:11;6.47;;;3.22;;
71046;SDS011;58703;48.978;8.982;2022-11-15T16:35:38;7.07;;;3.78;;
71046;SDS011;58703;48.978;8.982;2022-11-15T16:38:03;11.60;;;6.43;;
71046;SDS011;58703;48.978;8.982;2022-11-15T16:40:30;14.05;;;9.10;;
71046;SDS011;58703;48.978;8.982;2022-11-15T16:42:58;13.30;;;7.87;;
71046;SDS011;58703;48.978;8.982;2022-11-15T16:45:27;14.60;;;8.38;;
71046;SDS011;58703;48.978;8.982;2022-11-15T16:47:56;12.75;;;6.25;;
71046;SDS011;58703;48.978;8.982;2022-11-15T16:50:25;16.93;;;6.00;;
71046;SDS011;58703;48.978;8.982;2022-11-15T16:52:54;12.02;;;6.85;;
71046;SDS011;58703;48.978;8.982;2022-11-15T16:55:23;11.10;;;6.63;;
71046;SDS011;58703;48.978;8.982;2022-11-15T16:57:50;8.52;;;5.00;;
71046;SDS011;58703;48.978;8.982;2022-11-15T17:00:17;9.80;;;5.93;;
71046;SDS011;58703;48.978;8.982;2022-11-15T17:02:44;11.02;;;5.30;;
71046;SDS011;58703;48.978;8.982;2022-11-15T17:05:11;9.75;;;5.50;;
71046;SDS011;58703;48.978;8.982;2022-11-15T17:07:39;9.43;;;5.20;;
71046;SDS011;58703;48.978;8.982;2022-11-15T17:10:05;11.52;;;5.68;;
71046;SDS011;58703;48.978;8.982;2022-11-15T17:12:33;8.13;;;5.90;;
71046;SDS011;58703;48.978;8.982;2022-11-15T17:14:59;9.30;;;5.93;;
71046;SDS011;58703;48.978;8.982;2022-11-15T17:17:25;9.75;;;6.75;;